Time;durP1;ratioP1;P1;durP2;ratioP2;P2;SDS_P1;SDS_P2;PMS_P1;PMS_P2;Temp;Humidity;BMP_temperature;BMP_pressure;BME280_temperature;BME280_humidity;BME280_pressure;Samples;Min_cycle;Max_cycle;Signal;HPM_P1;HPM_P2
2023/12/13 00:00:41;;;;;;;;;;;8.00;73.40;;;;;;4993990;28;19920;-74
2023/12/13 00:03:06;;;;;;;;;;;8.00;73.30;;;;;;4991351;28;19917;-74
2023/12/13 00:05:32;;;;;;;;;;;8.00;76.20;;;;;;5002498;28;19937;-74
2023/12/13 00:08:05;;;;;;;;;;;8.10;75.10;;;;;;4997098;28;19971;-74
2023/12/13 00:10:31;;;;;;;;;;;8.10;74.10;;;;;;4990508;28;19968;-74
2023/12/13 00:12:59;;;;;;;;;;;8.10;72.00;;;;;;4995952;28;20284;-74
2023/12/13 00:15:29;;;;;;;;;;;8.20;70.80;;;;;;5009660;28;19917;-74
2023/12/13 00:17:59;;;;;;;;;;;8.10;70.00;;;;;;4996183;28;19910;-74
2023/12/13 00:20:35;;;;;;;;;;;8.30;70.00;;;;;;4983071;28;19946;-74
2023/12/13 00:23:05;;;;;;;;;;;8.40;67.90;;;;;;5009294;28;19940;-74
2023/12/13 00:25:35;;;;;;;;;;;8.40;66.90;;;;;;4998655;28;20008;-74
2023/12/13 00:28:01;;;;;;;;;;;8.40;68.70;;;;;;4996180;28;20040;-74
2023/12/13 00:36:32;;;;;;;;;;;8.50;73.00;;;;;;4989993;28;19920;-80
2023/12/13 00:45:04;;;;;;;;;;;8.40;67.90;;;;;;4994879;28;20049;-80
2023/12/13 00:56:54;;;;;;;;;;;8.30;63.70;;;;;;5004915;28;20016;-80
2023/12/13 00:59:35;;;;;;;;;;;8.30;68.20;;;;;;4993469;28;19917;-80
2023/12/13 01:05:04;;;;;;;;;;;8.20;67.80;;;;;;4994981;28;19960;-80
2023/12/13 01:07:59;;;;;;;;;;;8.20;65.80;;;;;;4994530;28;19921;-80
2023/12/13 01:10:41;;;;;;;;;;;8.20;68.60;;;;;;4995659;28;19921;-80
2023/12/13 01:16:10;;;;;;;;;;;8.30;76.80;;;;;;4989113;28;19965;-74
2023/12/13 01:18:53;;;;;;;;;;;8.20;79.50;;;;;;4996166;28;19913;-74
2023/12/13 01:21:18;;;;;;;;;;;8.30;83.20;;;;;;4998467;28;19921;-74
2023/12/13 01:23:44;;;;;;;;;;;8.30;86.60;;;;;;5008028;28;19936;-74
2023/12/13 01:26:11;;;;;;;;;;;8.40;90.40;;;;;;5006068;28;19938;-74
2023/12/13 01:28:37;;;;;;;;;;;8.40;90.90;;;;;;5003137;28;19914;-75
2023/12/13 01:31:08;;;;;;;;;;;8.40;92.30;;;;;;4994091;28;19925;-74
2023/12/13 01:33:35;;;;;;;;;;;8.50;93.20;;;;;;5006371;28;20273;-74
2023/12/13 01:36:05;;;;;;;;;;;8.60;94.60;;;;;;5005285;28;20020;-74
2023/12/13 01:38:35;;;;;;;;;;;8.60;94.10;;;;;;4990729;28;20440;-74
2023/12/13 01:41:05;;;;;;;;;;;8.70;94.60;;;;;;4994847;28;19964;-74
2023/12/13 01:43:35;;;;;;;;;;;8.70;95.40;;;;;;4995507;28;19968;-74
2023/12/13 01:52:07;;;;;;;;;;;9.00;94.30;;;;;;4996927;28;19971;-80
2023/12/13 01:57:36;;;;;;;;;;;8.80;86.50;;;;;;5000954;28;19920;-81
2023/12/13 02:00:23;;;;;;;;;;;8.90;82.70;;;;;;4977337;28;20000;-80
2023/12/13 02:02:53;;;;;;;;;;;8.90;74.40;;;;;;4999434;28;19914;-74
2023/12/13 02:05:20;;;;;;;;;;;8.90;68.60;;;;;;5001783;28;19921;-74
2023/12/13 02:07:46;;;;;;;;;;;8.90;65.10;;;;;;5011410;28;19914;-74
2023/12/13 02:10:11;;;;;;;;;;;8.90;61.70;;;;;;5002697;28;19914;-74
2023/12/13 02:12:37;;;;;;;;;;;8.90;55.90;;;;;;4994332;28;19914;-74
2023/12/13 02:15:03;;;;;;;;;;;8.80;51.60;;;;;;4994407;28;20004;-74
2023/12/13 02:26:39;;;;;;;;;;;8.50;38.30;;;;;;4993979;28;20324;-80
2023/12/13 02:32:08;;;;;;;;;;;8.20;38.10;;;;;;5002367;28;19920;-74
2023/12/13 02:34:34;;;;;;;;;;;8.10;38.00;;;;;;4985972;28;19910;-74
2023/12/13 02:37:02;;;;;;;;;;;8.00;38.00;;;;;;4990547;28;19929;-74
2023/12/13 02:39:27;;;;;;;;;;;7.90;37.80;;;;;;4994141;28;19914;-74
2023/12/13 02:42:05;;;;;;;;;;;7.90;37.80;;;;;;5006209;28;20383;-74
2023/12/13 02:44:31;;;;;;;;;;;7.80;37.80;;;;;;4994194;28;19914;-74
2023/12/13 02:46:58;;;;;;;;;;;7.70;37.70;;;;;;4995782;28;20358;-74
2023/12/13 02:49:24;;;;;;;;;;;7.60;37.60;;;;;;5004951;28;19910;-74
2023/12/13 02:51:50;;;;;;;;;;;7.50;37.50;;;;;;4995179;28;20284;-74
2023/12/13 02:54:16;;;;;;;;;;;7.50;37.50;;;;;;4994008;28;20531;-74
2023/12/13 02:56:47;;;;;;;;;;;7.50;37.50;;;;;;4998966;28;19994;-74
2023/12/13 02:59:23;;;;;;;;;;;7.60;37.60;;;;;;4994008;28;19909;-74
2023/12/13 03:01:49;;;;;;;;;;;7.50;37.50;;;;;;4982153;28;19917;-74
2023/12/13 03:04:14;;;;;;;;;;;7.50;37.50;;;;;;4999640;28;19910;-74
2023/12/13 03:06:41;;;;;;;;;;;7.40;37.50;;;;;;5004698;28;19987;-74
2023/12/13 03:09:07;;;;;;;;;;;;;;;;;;5009344;28;19913;-74
2023/12/13 03:11:47;;;;;;;;;;;7.30;37.40;;;;;;5004946;28;20300;-74
2023/12/13 03:14:13;;;;;;;;;;;;;;;;;;4994345;28;19961;-74
2023/12/13 03:16:47;;;;;;;;;;;7.30;37.40;;;;;;4997092;28;19949;-74
2023/12/13 03:25:19;;;;;;;;;;;7.40;37.50;;;;;;4983155;28;19917;-80
2023/12/13 03:30:47;;;;;;;;;;;7.60;37.60;;;;;;4996397;28;20374;-80
2023/12/13 03:36:16;;;;;;;;;;;7.60;37.60;;;;;;5005608;28;19920;-80
2023/12/13 03:41:26;;;;;;;;;;;7.60;37.60;;;;;;4990182;28;19921;-80
2023/12/13 03:43:52;;;;;;;;;;;7.50;37.50;;;;;;4990096;28;20001;-80
2023/12/13 03:49:29;;;;;;;;;;;7.50;37.50;;;;;;5003094;28;19920;-74
2023/12/13 03:51:55;;;;;;;;;;;7.40;37.50;;;;;;5009170;28;19910;-74
2023/12/13 03:54:20;;;;;;;;;;;7.40;37.50;;;;;;4984221;28;19932;-74
2023/12/13 03:56:46;;;;;;;;;;;7.40;37.50;;;;;;4995748;28;19969;-74
2023/12/13 03:59:12;;;;;;;;;;;7.40;37.50;;;;;;4996768;28;19937;-74
2023/12/13 04:01:37;;;;;;;;;;;7.50;37.50;;;;;;4995380;28;19921;-75
2023/12/13 04:04:05;;;;;;;;;;;7.50;37.50;;;;;;5003402;28;20441;-74
2023/12/13 04:06:41;;;;;;;;;;;7.60;37.60;;;;;;4996222;28;19918;-74
2023/12/13 04:09:07;;;;;;;;;;;7.60;37.60;;;;;;4999394;28;19918;-74
2023/12/13 04:11:32;;;;;;;;;;;7.70;37.70;;;;;;4989623;28;19984;-74
2023/12/13 04:13:59;;;;;;;;;;;7.70;37.70;;;;;;4998383;28;19918;-74
2023/12/13 04:16:29;;;;;;;;;;;7.70;37.70;;;;;;4997771;28;19921;-74
2023/12/13 04:18:55;;;;;;;;;;;7.80;37.80;;;;;;4999060;28;20000;-74
2023/12/13 04:21:23;;;;;;;;;;;;;;;;;;4995881;28;20053;-74
2023/12/13 04:23:53;;;;;;;;;;;7.80;37.80;;;;;;4997130;28;19957;-74
2023/12/13 04:26:19;;;;;;;;;;;7.90;37.90;;;;;;5015559;28;20041;-74
2023/12/13 04:28:47;;;;;;;;;;;7.90;37.90;;;;;;5000412;28;20001;-74
2023/12/13 04:31:17;;;;;;;;;;;8.00;38.00;;;;;;4995859;28;20030;-74
2023/12/13 04:40:07;;;;;;;;;;;8.10;38.00;;;;;;4991596;28;19964;-80
2023/12/13 04:45:36;;;;;;;;;;;8.20;38.10;;;;;;4997225;28;19917;-80
2023/12/13 04:48:11;;;;;;;;;;;8.20;38.10;;;;;;5002152;28;19910;-75
2023/12/13 04:50:37;;;;;;;;;;;8.30;38.20;;;;;;5005782;28;19918;-74
2023/12/13 04:53:05;;;;;;;;;;;8.30;38.20;;;;;;4995371;28;19910;-74
2023/12/13 04:58:34;;;;;;;;;;;8.30;38.20;;;;;;4995199;28;19948;-74
2023/12/13 05:01:17;;;;;;;;;;;8.40;38.30;;;;;;4995277;28;19917;-74
2023/12/13 05:03:43;;;;;;;;;;;8.40;38.30;;;;;;4988033;28;20048;-74
2023/12/13 05:06:08;;;;;;;;;;;8.40;38.30;;;;;;4993787;28;19961;-75
2023/12/13 05:08:34;;;;;;;;;;;8.40;38.30;;;;;;4984353;28;20012;-74
2023/12/13 05:11:00;;;;;;;;;;;8.40;38.30;;;;;;5003699;28;19917;-74
2023/12/13 05:13:35;;;;;;;;;;;8.40;38.30;;;;;;4982157;28;19914;-74
2023/12/13 05:16:01;;;;;;;;;;;8.40;33.00;;;;;;4996366;28;19918;-74
2023/12/13 05:18:29;;;;;;;;;;;8.40;36.30;;;;;;5001675;28;19985;-80
2023/12/13 05:23:58;;;;;;;;;;;8.30;27.90;;;;;;4985796;28;19964;-80
2023/12/13 05:26:24;;;;;;;;;;;8.30;25.50;;;;;;4998194;28;19913;-80
2023/12/13 05:29:11;;;;;;;;;;;8.20;28.20;;;;;;5003839;28;19909;-81
2023/12/13 05:32:11;;;;;;;;;;;8.10;32.20;;;;;;4986317;28;19961;-78
2023/12/13 05:34:37;;;;;;;;;;;8.00;30.30;;;;;;4990203;28;20013;-74
2023/12/13 05:37:05;;;;;;;;;;;7.90;37.70;;;;;;4996258;28;20004;-75
2023/12/13 05:39:47;;;;;;;;;;;7.80;37.80;;;;;;5001823;28;19913;-74
2023/12/13 05:42:13;;;;;;;;;;;;;;;;;;5007425;28;19910;-73
2023/12/13 05:44:39;;;;;;;;;;;7.60;37.60;;;;;;4995752;28;19945;-73
2023/12/13 05:47:23;;;;;;;;;;;7.50;37.50;;;;;;4990277;28;19974;-73
2023/12/13 05:49:49;;;;;;;;;;;7.50;37.50;;;;;;4994372;28;19921;-73
2023/12/13 05:52:18;;;;;;;;;;;7.60;37.60;;;;;;4996791;28;20198;-73
2023/12/13 05:54:43;;;;;;;;;;;7.60;37.60;;;;;;5004354;28;19959;-73
2023/12/13 05:57:10;;;;;;;;;;;7.60;37.60;;;;;;4994259;28;19953;-73
2023/12/13 05:59:59;;;;;;;;;;;7.70;37.70;;;;;;4994292;28;19952;-73
2023/12/13 06:02:25;;;;;;;;;;;7.70;37.70;;;;;;4981164;28;19915;-72
2023/12/13 06:05:17;;;;;;;;;;;7.80;37.80;;;;;;4997772;28;19920;-77
2023/12/13 06:08:11;;;;;;;;;;;7.90;37.80;;;;;;4984885;28;20060;-79
2023/12/13 06:10:37;;;;;;;;;;;7.90;37.90;;;;;;4999960;28;19918;-77
2023/12/13 06:15:47;;;;;;;;;;;7.90;37.80;;;;;;5003105;28;20047;-77
2023/12/13 06:18:23;;;;;;;;;;;7.90;37.90;;;;;;4994744;28;19914;-85
2023/12/13 06:42:12;;;;;;;;;;;7.70;37.80;;;;;;4986032;28;19967;-83
2023/12/13 06:45:11;;;;;;;;;;;7.70;37.70;;;;;;5010433;28;19960;-84
2023/12/13 07:02:54;;;;;;;;;;;8.00;37.90;;;;;;4999504;28;19961;-79
2023/12/13 07:05:35;;;;;;;;;;;8.10;38.00;;;;;;5002145;28;20370;-80
2023/12/13 07:08:02;;;;;;;;;;;;;;;;;;5004531;28;19949;-80
2023/12/13 07:10:30;;;;;;;;;;;;;;;;;;4978490;28;20006;-80
2023/12/13 07:25:07;;;;;;;;;;;8.30;38.20;;;;;;4992693;28;19914;-78
2023/12/13 07:36:45;;;;;;;;;;;8.50;38.40;;;;;;4995548;28;19924;-79
2023/12/13 07:39:18;;;;;;;;;;;;;;;;;;4996239;28;19917;-78
2023/12/13 07:54:32;;;;;;;;;;;8.60;38.50;;;;;;4994408;28;19983;-78
2023/12/13 08:00:01;;;;;;;;;;;8.80;38.60;;;;;;5005152;28;19917;-79
2023/12/13 08:05:53;;;;;;;;;;;9.00;38.80;;;;;;4993085;28;20301;-78
2023/12/13 08:11:47;;;;;;;;;;;9.20;38.90;;;;;;4991917;28;20001;-78
2023/12/13 08:17:15;;;;;;;;;;;9.40;39.10;;;;;;5007048;28;19972;-78
2023/12/13 08:19:47;;;;;;;;;;;9.50;39.20;;;;;;5011821;28;20366;-78
2023/12/13 08:22:17;;;;;;;;;;;9.70;39.30;;;;;;4995409;28;20004;-75
2023/12/13 08:24:44;;;;;;;;;;;9.70;39.40;;;;;;4994110;28;20370;-75
2023/12/13 08:27:10;;;;;;;;;;;9.80;39.40;;;;;;5005849;28;20367;-75
2023/12/13 08:30:05;;;;;;;;;;;10.00;38.60;;;;;;5002516;28;19993;-75
2023/12/13 08:32:31;;;;;;;;;;;9.90;39.60;;;;;;4995855;28;19916;-75
2023/12/13 08:34:56;;;;;;;;;;;10.00;38.60;;;;;;4995653;28;19914;-75
2023/12/13 08:37:29;;;;;;;;;;;;;;;;;;4995887;28;20380;-78
2023/12/13 08:40:11;;;;;;;;;;;9.90;39.50;;;;;;4994277;28;19914;-78
2023/12/13 08:42:38;;;;;;;;;;;10.00;38.70;;;;;;5008570;28;20399;-78
2023/12/13 08:48:06;;;;;;;;;;;10.00;38.70;;;;;;4995810;28;20444;-78
2023/12/13 08:50:41;;;;;;;;;;;10.00;38.60;;;;;;4982502;28;19910;-78
2023/12/13 08:56:24;;;;;;;;;;;10.00;38.60;;;;;;4995464;28;20471;-79
2023/12/13 09:01:52;;;;;;;;;;;;;;;;;;4987078;28;19996;-78
2023/12/13 09:04:47;;;;;;;;;;;9.90;39.60;;;;;;4994186;28;19977;-79
2023/12/13 09:10:16;;;;;;;;;;;10.10;38.80;;;;;;4997716;28;20329;-79
2023/12/13 09:18:47;;;;;;;;;;;9.70;39.30;;;;;;4982650;28;19953;-79
2023/12/13 09:24:17;;;;;;;;;;;9.70;39.40;;;;;;5005033;28;19928;-79
2023/12/13 09:27:00;;;;;;;;;;;9.70;39.30;;;;;;4979356;28;19997;-79
2023/12/13 09:29:53;;;;;;;;;;;9.80;39.50;;;;;;4990290;28;19910;-79
2023/12/13 09:38:25;;;;;;;;;;;10.30;38.90;;;;;;4999052;28;19916;-80
2023/12/13 09:46:58;;;;;;;;;;;10.50;39.10;;;;;;4985265;28;20044;-80
2023/12/13 09:52:28;;;;;;;;;;;10.80;38.90;;;;;;4988388;28;20444;-79
2023/12/13 09:57:56;;;;;;;;;;;11.00;21.70;;;;;;4994568;28;20017;-80
2023/12/13 10:00:22;;;;;;;;;;;11.20;19.10;;;;;;4994567;28;19945;-80
2023/12/13 10:05:59;;;;;;;;;;;11.40;3.40;;;;;;5003421;28;19920;-80
2023/12/13 10:08:35;;;;;;;;;;;11.40;1.00;;;;;;5002701;28;19924;-75
2023/12/13 10:11:05;;;;;;;;;;;11.30;1.00;;;;;;4987089;28;19914;-75
2023/12/13 10:13:31;;;;;;;;;;;11.30;1.10;;;;;;4989178;28;19992;-75
2023/12/13 10:16:17;;;;;;;;;;;11.00;1.00;;;;;;4995216;28;19917;-75
2023/12/13 10:18:43;;;;;;;;;;;;;;;;;;4995120;28;19968;-75
2023/12/13 10:27:15;;;;;;;;;;;11.10;1.00;;;;;;4997955;28;19965;-80
2023/12/13 10:29:48;;;;;;;;;;;11.40;1.00;;;;;;5002923;28;19918;-80
2023/12/13 10:35:16;;;;;;;;;;;11.70;1.00;;;;;;4997793;28;19933;-80
2023/12/13 10:46:35;;;;;;;;;;;12.00;1.00;;;;;;4999298;28;19917;-80
2023/12/13 10:52:05;;;;;;;;;;;12.10;1.00;;;;;;4994684;28;19937;-75
2023/12/13 10:54:36;;;;;;;;;;;11.90;1.00;;;;;;4998257;28;19914;-75
2023/12/13 10:57:02;;;;;;;;;;;11.50;1.00;;;;;;4998042;28;19925;-75
2023/12/13 11:00:05;;;;;;;;;;;11.50;1.00;;;;;;4997133;28;19910;-76
2023/12/13 11:02:46;;;;;;;;;;;11.40;1.00;;;;;;4995226;28;19917;-75
2023/12/13 11:05:12;;;;;;;;;;;11.30;1.00;;;;;;4985206;28;19949;-75
2023/12/13 11:11:05;;;;;;;;;;;11.10;1.00;;;;;;4997361;28;19968;-79
2023/12/13 11:16:42;;;;;;;;;;;11.20;1.00;;;;;;4995629;28;19925;-79
2023/12/13 11:22:12;;;;;;;;;;;11.50;1.00;;;;;;4997759;28;19916;-79
2023/12/13 11:36:55;;;;;;;;;;;12.30;1.00;;;;;;4996856;28;19921;-78
2023/12/13 11:39:23;;;;;;;;;;;12.30;1.00;;;;;;5008887;28;19960;-74
2023/12/13 11:41:53;;;;;;;;;;;12.50;1.00;;;;;;4996292;28;20321;-77
2023/12/13 11:44:30;;;;;;;;;;;12.50;1.00;;;;;;4996604;28;19929;-75
2023/12/13 11:46:56;;;;;;;;;;;;;;;;;;4984797;28;19918;-75
2023/12/13 11:49:22;;;;;;;;;;;12.50;1.00;;;;;;4995461;28;19917;-75
2023/12/13 11:51:48;;;;;;;;;;;12.60;1.00;;;;;;4990164;28;19922;-75
2023/12/13 11:54:41;;;;;;;;;;;12.60;1.00;;;;;;4989334;28;19965;-79
2023/12/13 12:00:10;;;;;;;;;;;12.30;1.00;;;;;;4996268;28;19917;-79
2023/12/13 12:02:41;;;;;;;;;;;12.10;1.00;;;;;;4996157;28;19913;-79
2023/12/13 12:08:11;;;;;;;;;;;11.80;1.00;;;;;;4998416;28;19961;-76
2023/12/13 12:10:37;;;;;;;;;;;11.80;1.00;;;;;;4996410;28;19918;-74
2023/12/13 12:13:03;;;;;;;;;;;;;;;;;;4996169;28;20397;-75
2023/12/13 12:15:30;;;;;;;;;;;11.40;1.00;;;;;;4995218;28;19924;-75
2023/12/13 12:17:55;;;;;;;;;;;11.30;1.00;;;;;;4996216;28;19910;-75
2023/12/13 12:20:35;;;;;;;;;;;11.40;1.00;;;;;;5003523;28;19920;-75
2023/12/13 12:23:06;;;;;;;;;;;11.40;1.00;;;;;;5007508;28;19917;-75
2023/12/13 12:25:35;;;;;;;;;;;11.50;1.00;;;;;;4997489;28;19913;-75
2023/12/13 12:28:04;;;;;;;;;;;11.50;1.00;;;;;;4995962;28;19942;-74
2023/12/13 12:30:29;;;;;;;;;;;11.60;1.00;;;;;;5009730;28;19914;-74
2023/12/13 12:32:55;;;;;;;;;;;11.60;1.00;;;;;;5001587;28;19917;-73
2023/12/13 12:38:24;;;;;;;;;;;11.60;1.00;;;;;;4990893;28;20309;-75
2023/12/13 12:40:59;;;;;;;;;;;11.50;1.00;;;;;;4986500;28;19914;-74
2023/12/13 12:43:25;;;;;;;;;;;11.60;1.00;;;;;;5004731;28;20320;-75
2023/12/13 12:46:05;;;;;;;;;;;11.70;1.00;;;;;;4997753;28;19914;-75
2023/12/13 12:48:41;;;;;;;;;;;11.90;1.00;;;;;;4963516;28;19914;-74
2023/12/13 12:51:08;;;;;;;;;;;12.00;1.00;;;;;;4986378;28;19917;-74
2023/12/13 12:53:34;;;;;;;;;;;12.00;1.00;;;;;;4978356;28;19911;-75
2023/12/13 12:56:07;;;;;;;;;;;12.00;1.00;;;;;;5012186;28;19924;-74
2023/12/13 12:58:41;;;;;;;;;;;12.10;1.00;;;;;;4994940;28;19910;-75
2023/12/13 13:01:12;;;;;;;;;;;12.10;1.00;;;;;;4989126;28;19918;-76
2023/12/13 13:03:37;;;;;;;;;;;12.10;1.00;;;;;;4988094;28;19918;-75
2023/12/13 13:06:04;;;;;;;;;;;12.20;1.00;;;;;;4993987;28;19968;-75
2023/12/13 13:08:30;;;;;;;;;;;12.20;1.00;;;;;;4993647;28;19929;-74
2023/12/13 13:10:56;;;;;;;;;;;12.30;1.00;;;;;;4999123;28;19914;-74
2023/12/13 13:13:25;;;;;;;;;;;12.50;1.00;;;;;;4995752;28;19913;-74
2023/12/13 13:15:50;;;;;;;;;;;12.50;1.00;;;;;;4997768;28;19917;-74
2023/12/13 13:18:17;;;;;;;;;;;12.60;1.00;;;;;;5001510;28;20517;-75
2023/12/13 13:20:43;;;;;;;;;;;12.50;1.00;;;;;;4994737;28;19972;-74
2023/12/13 13:23:11;;;;;;;;;;;12.40;1.00;;;;;;4994597;28;19917;-75
2023/12/13 13:25:37;;;;;;;;;;;12.40;1.00;;;;;;4997554;28;19913;-76
2023/12/13 13:28:03;;;;;;;;;;;12.40;1.00;;;;;;5005198;28;19916;-76
2023/12/13 13:30:35;;;;;;;;;;;12.50;1.00;;;;;;4998349;28;19929;-76
2023/12/13 13:38:48;;;;;;;;;;;12.20;1.00;;;;;;4993529;28;19921;-78
2023/12/13 13:41:14;;;;;;;;;;;12.10;1.00;;;;;;4993380;28;20557;-78
2023/12/13 13:46:43;;;;;;;;;;;12.10;1.00;;;;;;4994214;28;20019;-78
2023/12/13 13:49:18;;;;;;;;;;;12.10;1.00;;;;;;4994403;28;19910;-78
2023/12/13 13:57:29;;;;;;;;;;;12.20;1.00;;;;;;4990711;28;19976;-75
2023/12/13 13:59:56;;;;;;;;;;;12.10;1.00;;;;;;4997507;28;20285;-75
2023/12/13 14:02:33;;;;;;;;;;;12.00;1.00;;;;;;4992540;28;19936;-74
2023/12/13 14:05:17;;;;;;;;;;;11.80;1.00;;;;;;4989458;28;19916;-74
2023/12/13 14:07:48;;;;;;;;;;;11.70;1.00;;;;;;4996262;28;19914;-74
2023/12/13 14:10:35;;;;;;;;;;;11.60;1.00;;;;;;5000297;28;19917;-75
2023/12/13 14:13:06;;;;;;;;;;;11.50;1.00;;;;;;4974937;28;19911;-74
2023/12/13 14:15:36;;;;;;;;;;;11.40;1.00;;;;;;4995740;28;19949;-74
2023/12/13 14:18:12;;;;;;;;;;;11.20;1.00;;;;;;4995141;28;20008;-75
2023/12/13 14:20:51;;;;;;;;;;;11.10;1.00;;;;;;5012767;28;19937;-74
2023/12/13 14:23:17;;;;;;;;;;;11.00;1.00;;;;;;4993626;28;19949;-74
2023/12/13 14:31:49;;;;;;;;;;;10.70;1.00;;;;;;4977807;28;19956;-76
2023/12/13 14:34:23;;;;;;;;;;;;;;;;;;4994473;28;19957;-75
2023/12/13 14:36:49;;;;;;;;;;;10.40;1.00;;;;;;4993413;28;20039;-75
2023/12/13 14:39:25;;;;;;;;;;;10.20;1.00;;;;;;4977399;28;20337;-76
2023/12/13 14:41:51;;;;;;;;;;;10.20;1.00;;;;;;5003012;28;19913;-75
2023/12/13 14:44:24;;;;;;;;;;;10.00;1.00;;;;;;4998179;28;19917;-79
2023/12/13 14:46:49;;;;;;;;;;;9.90;1.00;;;;;;4993846;28;19910;-79
2023/12/13 14:49:15;;;;;;;;;;;9.90;1.00;;;;;;5014104;28;19914;-79
2023/12/13 14:52:00;;;;;;;;;;;9.80;1.00;;;;;;4981680;28;19971;-79
2023/12/13 14:54:29;;;;;;;;;;;;;;;;;;4992746;28;19914;-79
2023/12/13 14:59:59;;;;;;;;;;;9.40;1.00;;;;;;4974268;28;20010;-79
2023/12/13 15:02:31;;;;;;;;;;;9.40;1.00;;;;;;4992110;28;19953;-79
2023/12/13 15:05:00;;;;;;;;;;;9.30;1.00;;;;;;4997456;28;19910;-79
2023/12/13 15:10:29;;;;;;;;;;;9.10;1.00;;;;;;4989929;28;20423;-78
2023/12/13 15:16:24;;;;;;;;;;;8.90;1.00;;;;;;4997080;28;20018;-79
2023/12/13 15:19:00;;;;;;;;;;;8.70;1.00;;;;;;5005228;28;19910;-79
2023/12/13 15:21:36;;;;;;;;;;;8.60;1.00;;;;;;4984718;28;20350;-81
2023/12/13 15:27:09;;;;;;;;;;;8.60;1.00;;;;;;4991408;28;19989;-79
2023/12/13 15:29:54;;;;;;;;;;;8.50;1.00;;;;;;4996918;28;19920;-78
2023/12/13 15:35:23;;;;;;;;;;;;;;;;;;4996933;28;19936;-81
2023/12/13 15:37:54;;;;;;;;;;;8.30;1.00;;;;;;4996754;28;19913;-77
2023/12/13 15:43:22;;;;;;;;;;;8.10;1.00;;;;;;5010070;28;20102;-76
2023/12/13 15:51:55;;;;;;;;;;;7.90;1.00;;;;;;4995383;28;20329;-78
2023/12/13 15:57:24;;;;;;;;;;;7.70;1.00;;;;;;4985722;28;19924;-78
2023/12/13 16:00:09;;;;;;;;;;;7.70;1.00;;;;;;4996135;28;19909;-78
2023/12/13 16:03:05;;;;;;;;;;;7.70;1.00;;;;;;4996345;28;19917;-77
2023/12/13 16:08:34;;;;;;;;;;;7.50;4.30;;;;;;5007578;28;19933;-78
2023/12/13 16:14:24;;;;;;;;;;;7.60;10.60;;;;;;4995783;28;19920;-78
2023/12/13 16:26:06;;;;;;;;;;;7.80;18.60;;;;;;4992643;28;19921;-77
2023/12/13 16:31:34;;;;;;;;;;;7.80;20.00;;;;;;4993515;28;20009;-77
2023/12/13 16:34:05;;;;;;;;;;;;;;;;;;4989820;28;19949;-77
2023/12/13 16:36:36;;;;;;;;;;;;;;;;;;4995707;28;19925;-77
2023/12/13 16:39:02;;;;;;;;;;;7.70;22.40;;;;;;4995906;28;19956;-76
2023/12/13 16:41:56;;;;;;;;;;;7.70;21.40;;;;;;4995800;28;19914;-76
2023/12/13 16:50:29;;;;;;;;;;;7.70;18.80;;;;;;5002167;28;19925;-76
2023/12/13 16:53:06;;;;;;;;;;;7.70;18.20;;;;;;4988721;28;19996;-76
2023/12/13 16:59:05;;;;;;;;;;;7.70;17.50;;;;;;4982499;28;19960;-76
2023/12/13 17:01:48;;;;;;;;;;;7.80;18.90;;;;;;4981228;28;19914;-76
2023/12/13 17:04:24;;;;;;;;;;;7.80;20.40;;;;;;5002471;28;20377;-85
2023/12/13 17:06:49;;;;;;;;;;;7.80;21.20;;;;;;4997151;28;20000;-73
2023/12/13 17:09:16;;;;;;;;;;;;;;;;;;4994043;28;19945;-73
2023/12/13 17:11:41;;;;;;;;;;;7.80;20.90;;;;;;4995116;28;19918;-78
2023/12/13 17:14:11;;;;;;;;;;;;;;;;;;4991897;28;20415;-76
2023/12/13 17:16:37;;;;;;;;;;;7.80;23.60;;;;;;4993414;28;19949;-76
2023/12/13 17:30:57;;;;;;;;;;;8.00;22.70;;;;;;4996676;28;19921;-75
2023/12/13 17:33:22;;;;;;;;;;;8.00;22.60;;;;;;4996083;28;19914;-75
2023/12/13 17:35:54;;;;;;;;;;;8.10;22.30;;;;;;4991654;28;20432;-74
2023/12/13 17:38:19;;;;;;;;;;;8.10;21.00;;;;;;4997421;28;19914;-75
2023/12/13 17:40:45;;;;;;;;;;;8.10;21.10;;;;;;4995089;28;19984;-75
2023/12/13 17:43:18;;;;;;;;;;;8.20;19.10;;;;;;4981665;28;19910;-75
2023/12/13 17:45:43;;;;;;;;;;;8.20;18.70;;;;;;4989734;28;20005;-75
2023/12/13 17:48:10;;;;;;;;;;;8.30;18.30;;;;;;4991034;28;20004;-75
2023/12/13 17:50:36;;;;;;;;;;;8.30;17.20;;;;;;4991327;28;20440;-74
2023/12/13 17:53:02;;;;;;;;;;;8.10;17.60;;;;;;4994603;28;19914;-74
2023/12/13 17:55:29;;;;;;;;;;;;;;;;;;4988580;28;19929;-74
2023/12/13 17:58:06;;;;;;;;;;;8.20;23.00;;;;;;4982826;28;19914;-74
2023/12/13 18:03:36;;;;;;;;;;;8.20;27.90;;;;;;4976646;28;19921;-86
2023/12/13 18:09:04;;;;;;;;;;;8.40;13.90;;;;;;4994651;28;19921;-81
2023/12/13 18:11:30;;;;;;;;;;;8.40;9.70;;;;;;4993921;28;19918;-81
2023/12/13 18:16:58;;;;;;;;;;;8.40;10.80;;;;;;4995978;28;19928;-83
2023/12/13 18:19:25;;;;;;;;;;;8.40;10.10;;;;;;5007687;28;19910;-83
2023/12/13 18:27:57;;;;;;;;;;;8.40;8.90;;;;;;4999394;28;19959;-85
2023/12/13 18:33:25;;;;;;;;;;;8.40;7.50;;;;;;4986212;28;19920;-81
2023/12/13 18:44:54;;;;;;;;;;;8.10;5.50;;;;;;4998561;28;19964;-83
2023/12/13 18:50:23;;;;;;;;;;;;;;;;;;4993057;28;19917;-77
2023/12/13 18:53:18;;;;;;;;;;;7.80;10.50;;;;;;5011886;28;19910;-78
2023/12/13 18:55:48;;;;;;;;;;;7.70;12.60;;;;;;4988282;28;19913;-81
2023/12/13 19:01:16;;;;;;;;;;;7.70;13.60;;;;;;4998284;28;20004;-84
2023/12/13 19:03:42;;;;;;;;;;;7.80;13.30;;;;;;5018568;28;19945;-84
2023/12/13 19:15:17;;;;;;;;;;;7.70;13.30;;;;;;4997715;28;20324;-83
2023/12/13 19:17:54;;;;;;;;;;;7.60;14.60;;;;;;5001201;28;19918;-81
2023/12/13 19:23:23;;;;;;;;;;;7.60;15.60;;;;;;4994907;28;19926;-81
2023/12/13 19:26:00;;;;;;;;;;;7.60;15.00;;;;;;4998185;28;19916;-81
2023/12/13 19:28:25;;;;;;;;;;;7.60;15.20;;;;;;4995411;28;19910;-81
2023/12/13 19:30:51;;;;;;;;;;;7.50;17.30;;;;;;4996001;28;19916;-81
2023/12/13 19:33:18;;;;;;;;;;;7.60;20.40;;;;;;5006468;28;19914;-76
2023/12/13 19:35:48;;;;;;;;;;;;;;;;;;4996767;28;19972;-76
2023/12/13 19:38:24;;;;;;;;;;;7.60;19.20;;;;;;4992072;28;19910;-76
2023/12/13 19:44:00;;;;;;;;;;;7.50;19.50;;;;;;4988917;28;19916;-76
2023/12/13 20:01:22;;;;;;;;;;;7.10;17.10;;;;;;4982995;28;19921;-81
2023/12/13 20:04:18;;;;;;;;;;;7.00;16.60;;;;;;5005712;28;19918;-81
2023/12/13 20:09:46;;;;;;;;;;;6.80;16.70;;;;;;4988101;28;19916;-81
2023/12/13 20:12:18;;;;;;;;;;;6.80;15.50;;;;;;4991980;28;20286;-81
2023/12/13 20:14:43;;;;;;;;;;;6.80;14.50;;;;;;4992277;28;19917;-81
2023/12/13 20:20:12;;;;;;;;;;;6.80;15.80;;;;;;5006213;28;19917;-81
2023/12/13 20:25:40;;;;;;;;;;;6.80;18.20;;;;;;4996621;28;19920;-81
2023/12/13 20:28:20;;;;;;;;;;;6.80;18.90;;;;;;5015260;28;19910;-81
2023/12/13 20:31:17;;;;;;;;;;;6.70;18.50;;;;;;4996054;28;19917;-81
2023/12/13 20:37:11;;;;;;;;;;;6.70;19.70;;;;;;4984591;28;19929;-76
2023/12/13 20:39:37;;;;;;;;;;;6.50;19.90;;;;;;4992805;28;19914;-76
2023/12/13 20:42:18;;;;;;;;;;;6.50;20.20;;;;;;4986864;28;19918;-75
2023/12/13 20:44:48;;;;;;;;;;;6.40;20.00;;;;;;4994657;28;19917;-75
2023/12/13 20:47:24;;;;;;;;;;;6.30;19.50;;;;;;4984558;28;19910;-76
2023/12/13 20:50:00;;;;;;;;;;;6.30;18.30;;;;;;4991300;28;19914;-76
2023/12/13 20:52:25;;;;;;;;;;;6.30;19.00;;;;;;4995963;28;19941;-76
2023/12/13 20:54:51;;;;;;;;;;;6.30;20.00;;;;;;4996119;28;19948;-76
2023/12/13 20:57:17;;;;;;;;;;;6.30;21.20;;;;;;4994600;28;19914;-76
2023/12/13 20:59:48;;;;;;;;;;;;;;;;;;5001713;28;20281;-75
2023/12/13 21:02:48;;;;;;;;;;;6.20;23.50;;;;;;5002117;28;19960;-81
2023/12/13 21:05:42;;;;;;;;;;;6.20;26.40;;;;;;4989200;28;19910;-81
2023/12/13 21:11:10;;;;;;;;;;;6.20;27.20;;;;;;4987817;28;19920;-81
2023/12/13 21:13:36;;;;;;;;;;;6.20;27.80;;;;;;5000146;28;20365;-81
2023/12/13 21:16:06;;;;;;;;;;;6.20;27.40;;;;;;4994878;28;19913;-81
2023/12/13 21:18:51;;;;;;;;;;;6.20;29.20;;;;;;4995143;28;19933;-76
2023/12/13 21:21:18;;;;;;;;;;;6.20;28.30;;;;;;4985660;28;19920;-76
2023/12/13 21:26:36;;;;;;;;;;;;;;;;;;4994064;28;19921;-76
2023/12/13 21:29:01;;;;;;;;;;;6.20;31.40;;;;;;4992192;28;20012;-76
2023/12/13 21:31:27;;;;;;;;;;;;;;;;;;4996415;28;20011;-76
2023/12/13 21:34:12;;;;;;;;;;;;;;;;;;4994207;28;20029;-76
2023/12/13 21:36:45;;;;;;;;;;;6.20;36.50;;;;;;4994309;28;19913;-76
2023/12/13 21:39:12;;;;;;;;;;;6.10;36.40;;;;;;4993938;28;19922;-76
2023/12/13 21:41:42;;;;;;;;;;;6.10;36.40;;;;;;4988393;28;19914;-76
2023/12/13 21:44:07;;;;;;;;;;;6.10;36.40;;;;;;4995149;28;19914;-76
2023/12/13 21:46:33;;;;;;;;;;;;;;;;;;5000047;28;19909;-76
2023/12/13 22:00:53;;;;;;;;;;;;;;;;;;4994577;28;19956;-81
2023/12/13 22:03:19;;;;;;;;;;;5.90;36.20;;;;;;4994951;28;19917;-81
2023/12/13 22:05:48;;;;;;;;;;;5.80;36.10;;;;;;4997353;28;19910;-81
2023/12/13 22:08:14;;;;;;;;;;;;;;;;;;4998064;28;19980;-81
2023/12/13 22:10:42;;;;;;;;;;;5.90;35.60;;;;;;4993801;28;19910;-81
2023/12/13 22:13:07;;;;;;;;;;;;;;;;;;4996779;28;19980;-81
2023/12/13 22:15:36;;;;;;;;;;;5.80;36.10;;;;;;5012514;28;20358;-81
2023/12/13 22:18:06;;;;;;;;;;;5.80;36.10;;;;;;5014302;28;19957;-75
2023/12/13 22:20:36;;;;;;;;;;;5.80;36.10;;;;;;4988222;28;19910;-75
2023/12/13 22:23:06;;;;;;;;;;;5.80;33.60;;;;;;5002284;28;19910;-76
2023/12/13 22:25:37;;;;;;;;;;;5.80;29.80;;;;;;5013111;28;19910;-76